Time;durP1;ratioP1;P1;durP2;ratioP2;P2;SDS_P1;SDS_P2;PMS_P1;PMS_P2;Temp;Humidity;BMP_temperature;BMP_pressure;BME280_temperature;BME280_humidity;BME280_pressure;Samples;Min_cycle;Max_cycle;Signal;HPM_P1;HPM_P2
2020/12/09 00:02:08;;;;;;;4.07;2.50;;;76.90;2048.00;;;;;;5100631;28;20031;-71
2020/12/09 00:04:34;;;;;;;5.90;2.80;;;77.00;2048.00;;;;;;5100063;28;20028;-70
2020/12/09 00:07:00;;;;;;;4.47;3.30;;;77.10;2048.00;;;;;;5100221;28;20028;-71
2020/12/09 00:09:26;;;;;;;3.72;1.65;;;77.00;2048.00;;;;;;5100526;28;20539;-71
2020/12/09 00:11:53;;;;;;;4.20;2.47;;;77.00;2048.00;;;;;;5100190;28;20486;-72
2020/12/09 00:14:20;;;;;;;4.68;2.50;;;77.10;2073.60;;;;;;5100344;28;20024;-72
2020/12/09 00:16:45;;;;;;;7.43;3.30;;;77.00;2073.60;;;;;;5100000;28;20387;-72
2020/12/09 00:19:11;;;;;;;7.68;3.90;;;77.20;2073.60;;;;;;5081505;28;20117;-72
2020/12/09 00:21:37;;;;;;;3.17;1.80;;;77.10;2048.00;;;;;;5099985;28;20149;-73
2020/12/09 00:24:04;;;;;;;6.72;3.83;;;77.10;2073.60;;;;;;5099949;28;20024;-72
2020/12/09 00:26:34;;;;;;;2.72;1.48;;;77.20;2048.00;;;;;;5099671;28;20031;-70
2020/12/09 00:29:00;;;;;;;6.80;3.55;;;77.20;2048.00;;;;;;5099889;28;20031;-71
2020/12/09 00:31:31;;;;;;;8.02;4.95;;;77.20;2048.00;;;;;;5099282;28;20102;-70
2020/12/09 00:33:58;;;;;;;14.48;7.45;;;77.30;2048.00;;;;;;5099169;28;20028;-72
2020/12/09 00:36:24;;;;;;;11.95;6.78;;;77.40;2048.00;;;;;;5081826;28;20035;-72
2020/12/09 00:38:52;;;;;;;6.18;3.22;;;77.40;2022.40;;;;;;5099629;28;20081;-71
2020/12/09 00:41:23;;;;;;;2.93;1.30;;;77.40;2022.40;;;;;;5099214;28;20450;-72
2020/12/09 00:43:50;;;;;;;3.30;1.80;;;77.30;2022.40;;;;;;5099337;28;20020;-72
2020/12/09 00:46:24;;;;;;;5.78;2.70;;;77.20;2048.00;;;;;;5098934;28;20036;-72
2020/12/09 00:48:50;;;;;;;4.20;1.98;;;77.20;2048.00;;;;;;5099227;28;20320;-72
2020/12/09 00:51:20;;;;;;;3.25;1.48;;;77.30;2048.00;;;;;;5099144;28;20047;-72
2020/12/09 00:53:47;;;;;;;4.00;1.45;;;77.30;2022.40;;;;;;5099337;28;20126;-72
2020/12/09 00:56:13;;;;;;;3.17;1.20;;;77.40;2022.40;;;;;;5099583;28;20111;-71
2020/12/09 00:58:39;;;;;;;2.97;1.25;;;77.40;2022.40;;;;;;5099023;28;20118;-71
2020/12/09 01:01:06;;;;;;;2.72;1.50;;;77.50;2048.00;;;;;;5098668;28;20023;-72
2020/12/09 01:03:33;;;;;;;1.50;0.85;;;77.70;1996.80;;;;;;5098889;28;20381;-72
2020/12/09 01:06:00;;;;;;;4.60;2.08;;;77.70;1996.80;;;;;;5099113;28;20020;-70
2020/12/09 01:08:26;;;;;;;2.22;1.33;;;77.70;1996.80;;;;;;5099093;28;20096;-72
2020/12/09 01:10:53;;;;;;;1.90;1.08;;;77.60;1996.80;;;;;;5099074;28;20027;-71
2020/12/09 01:13:19;;;;;;;2.40;1.50;;;77.40;1996.80;;;;;;5098893;28;20028;-70
2020/12/09 01:15:45;;;;;;;2.47;1.30;;;77.40;2022.40;;;;;;5098655;28;20386;-71
2020/12/09 01:18:11;;;;;;;1.77;1.08;;;77.40;2022.40;;;;;;5099183;28;20024;-72
2020/12/09 01:20:37;;;;;;;1.70;1.00;;;77.30;2022.40;;;;;;5099139;28;20020;-70
2020/12/09 01:23:03;;;;;;;2.58;1.17;;;77.40;1996.80;;;;;;5098518;28;20032;-72
2020/12/09 01:25:29;;;;;;;1.70;1.00;;;77.50;2022.40;;;;;;5098486;28;20020;-71
2020/12/09 01:27:59;;;;;;;1.55;1.00;;;77.70;1996.80;;;;;;5098674;28;20028;-73
2020/12/09 01:30:25;;;;;;;1.65;0.90;;;77.70;1996.80;;;;;;5098976;28;20027;-71
2020/12/09 01:32:50;;;;;;;2.10;1.20;;;77.70;1971.20;;;;;;5098804;28;20032;-72
2020/12/09 01:35:16;;;;;;;1.88;1.02;;;102.40;1996.80;;;;;;5098313;28;20024;-71
2020/12/09 01:37:42;;;;;;;2.05;0.93;;;102.60;1971.20;;;;;;5098494;28;20067;-72
2020/12/09 01:40:08;;;;;;;3.92;2.38;;;102.60;1971.20;;;;;;5098762;28;20139;-72
2020/12/09 01:42:33;;;;;;;3.72;1.60;;;102.50;1945.60;;;;;;5098001;28;20056;-71
2020/12/09 01:44:59;;;;;;;2.67;1.42;;;102.50;1945.60;;;;;;5098327;28;20452;-71
2020/12/09 01:47:25;;;;;;;3.08;1.50;;;102.60;1945.60;;;;;;5098624;28;20027;-73
2020/12/09 01:49:51;;;;;;;4.53;3.03;;;102.40;1945.60;;;;;;5097714;28;20023;-70
2020/12/09 01:52:18;;;;;;;6.72;4.53;;;77.70;1996.80;;;;;;5098516;28;20032;-72
2020/12/09 01:54:44;;;;;;;2.25;1.20;;;102.50;1971.20;;;;;;5098217;28;20077;-72
2020/12/09 01:57:12;;;;;;;1.95;1.08;;;102.50;1945.60;;;;;;5097876;28;20418;-72
2020/12/09 01:59:39;;;;;;;1.70;1.10;;;77.60;1971.20;;;;;;5098411;28;20107;-72
2020/12/09 02:02:07;;;;;;;2.55;1.23;;;77.40;1996.80;;;;;;5098330;28;20024;-71
2020/12/09 02:04:37;;;;;;;1.98;1.50;;;77.50;2022.40;;;;;;5079764;28;20024;-70
2020/12/09 02:07:03;;;;;;;2.90;1.27;;;77.60;2022.40;;;;;;5098245;28;20024;-71
2020/12/09 02:09:29;;;;;;;2.30;1.45;;;77.60;1996.80;;;;;;5097791;28;20024;-71
2020/12/09 02:11:56;;;;;;;2.60;1.23;;;77.60;1971.20;;;;;;5097408;28;20028;-71
2020/12/09 02:14:24;;;;;;;1.92;1.00;;;77.60;1971.20;;;;;;5098075;28;20024;-72
2020/12/09 02:16:51;;;;;;;2.10;1.00;;;77.50;1971.20;;;;;;5097265;28;20028;-71
2020/12/09 02:19:18;;;;;;;2.88;1.38;;;77.50;1996.80;;;;;;5097812;28;20019;-72
2020/12/09 02:21:44;;;;;;;3.40;1.75;;;77.50;1971.20;;;;;;5097722;28;20035;-72
2020/12/09 02:24:09;;;;;;;2.60;1.20;;;77.50;1971.20;;;;;;5097407;28;20020;-71
2020/12/09 02:26:49;;;;;;;2.33;1.40;;;77.30;1971.20;;;;;;5097658;28;20453;-71
2020/12/09 02:29:15;;;;;;;2.53;1.35;;;77.40;1996.80;;;;;;5097661;28;20028;-71
2020/12/09 02:31:41;;;;;;;3.10;1.20;;;77.40;1996.80;;;;;;5097306;28;20407;-71
2020/12/09 02:34:08;;;;;;;2.83;1.40;;;77.40;1996.80;;;;;;5097464;28;20032;-72
2020/12/09 02:36:34;;;;;;;2.78;1.63;;;77.40;1971.20;;;;;;5097270;28;20024;-72
2020/12/09 02:39:01;;;;;;;3.17;1.55;;;77.30;1996.80;;;;;;5097512;28;20028;-71
2020/12/09 02:41:27;;;;;;;3.40;1.48;;;77.30;1996.80;;;;;;5097492;28;20052;-72
2020/12/09 02:43:53;;;;;;;5.03;1.10;;;77.30;1996.80;;;;;;5097401;28;20036;-71
2020/12/09 02:46:18;;;;;;;3.13;1.20;;;77.30;1996.80;;;;;;5097110;28;20024;-70
2020/12/09 02:48:44;;;;;;;1.85;1.17;;;77.30;1996.80;;;;;;5097053;28;20059;-70
2020/12/09 02:51:10;;;;;;;2.65;1.33;;;77.40;1996.80;;;;;;5097067;28;20406;-72
2020/12/09 02:53:36;;;;;;;4.07;1.48;;;77.60;1971.20;;;;;;5096932;28;20092;-72
2020/12/09 02:56:02;;;;;;;2.05;1.40;;;77.50;1996.80;;;;;;5097296;28;20060;-71
2020/12/09 02:58:28;;;;;;;1.73;1.00;;;77.60;1971.20;;;;;;5097522;28;20032;-72
2020/12/09 03:00:55;;;;;;;3.08;1.38;;;77.70;1945.60;;;;;;5096428;28;20020;-72
2020/12/09 03:03:21;;;;;;;2.72;1.23;;;77.70;1945.60;;;;;;5096956;28;20473;-70
2020/12/09 03:05:47;;;;;;;2.38;1.20;;;77.60;1971.20;;;;;;5096655;28;20059;-71
2020/12/09 03:08:12;;;;;;;2.33;1.40;;;77.70;1971.20;;;;;;5096892;28;20028;-72
2020/12/09 03:10:38;;;;;;;1.73;1.00;;;77.60;1971.20;;;;;;5097452;28;20403;-72
2020/12/09 03:13:04;;;;;;;2.40;1.17;;;77.60;1971.20;;;;;;5097045;28;20032;-73
2020/12/09 03:15:30;;;;;;;2.42;1.40;;;77.70;1971.20;;;;;;5097133;28;20111;-71
2020/12/09 03:17:55;;;;;;;2.13;1.20;;;77.70;1945.60;;;;;;5097101;28;20411;-72
2020/12/09 03:20:21;;;;;;;2.42;1.15;;;102.40;1945.60;;;;;;5096793;28;20042;-72
2020/12/09 03:22:47;;;;;;;2.63;1.13;;;102.50;1945.60;;;;;;5100382;28;20081;-72
2020/12/09 03:25:13;;;;;;;2.53;1.25;;;102.40;1945.60;;;;;;5100799;28;20016;-71
2020/12/09 03:27:38;;;;;;;2.05;1.10;;;102.40;1945.60;;;;;;5100760;28;20028;-72
2020/12/09 03:30:04;;;;;;;2.67;1.30;;;102.40;1971.20;;;;;;5100707;28;20333;-72
2020/12/09 03:32:31;;;;;;;2.97;1.42;;;102.50;1945.60;;;;;;5101115;28;20024;-73
2020/12/09 03:34:56;;;;;;;3.38;1.40;;;102.60;1945.60;;;;;;5100594;28;20335;-71
2020/12/09 03:37:22;;;;;;;2.10;1.25;;;102.60;1945.60;;;;;;5100551;28;20024;-72
2020/12/09 03:39:48;;;;;;;2.72;1.50;;;102.60;1945.60;;;;;;5100539;28;20024;-71
2020/12/09 03:42:14;;;;;;;3.13;1.58;;;102.60;1945.60;;;;;;5100847;28;20063;-71
2020/12/09 03:44:40;;;;;;;5.00;1.60;;;102.60;1920.00;;;;;;5100995;28;20024;-72
2020/12/09 03:47:06;;;;;;;2.35;1.10;;;102.60;1945.60;;;;;;5100383;28;20074;-71
2020/12/09 03:49:32;;;;;;;1.85;1.20;;;102.40;1971.20;;;;;;5100273;28;20028;-71
2020/12/09 03:51:58;;;;;;;2.83;1.30;;;102.40;1945.60;;;;;;5100243;28;20438;-71
2020/12/09 03:54:24;;;;;;;3.03;1.50;;;102.40;1945.60;;;;;;5100471;28;20112;-72
2020/12/09 03:56:50;;;;;;;2.33;1.48;;;77.70;1945.60;;;;;;5100236;28;20027;-72
2020/12/09 03:59:16;;;;;;;3.00;1.33;;;102.40;1945.60;;;;;;5100699;28;20032;-72
2020/12/09 04:01:42;;;;;;;2.03;1.13;;;102.40;1945.60;;;;;;5100449;28;20019;-72
2020/12/09 04:04:08;;;;;;;3.15;1.50;;;102.40;1945.60;;;;;;5100595;28;20327;-71
2020/12/09 04:06:34;;;;;;;3.83;1.60;;;102.40;1945.60;;;;;;5099747;28;20027;-71
2020/12/09 04:09:00;;;;;;;3.58;1.63;;;102.40;1945.60;;;;;;5099736;28;20028;-71
2020/12/09 04:11:26;;;;;;;2.15;1.20;;;102.40;1945.60;;;;;;5099939;28;20107;-71
2020/12/09 04:13:52;;;;;;;3.38;1.80;;;102.40;1945.60;;;;;;5100361;28;20412;-71
2020/12/09 04:16:17;;;;;;;2.95;1.30;;;102.50;1945.60;;;;;;5100206;28;20059;-72
2020/12/09 04:18:43;;;;;;;4.10;1.40;;;102.50;1945.60;;;;;;5099804;28;20028;-72
2020/12/09 04:21:09;;;;;;;2.55;1.33;;;102.50;1945.60;;;;;;5100324;28;20398;-70
2020/12/09 04:23:35;;;;;;;4.30;1.55;;;102.60;1945.60;;;;;;5099446;28;20062;-70
2020/12/09 04:26:00;;;;;;;4.10;1.38;;;102.60;1920.00;;;;;;5099908;28;20402;-71
2020/12/09 04:28:26;;;;;;;3.20;1.40;;;102.60;1945.60;;;;;;5099896;28;20102;-71
2020/12/09 04:30:52;;;;;;;2.40;1.38;;;102.60;1920.00;;;;;;5099831;28;20020;-71
2020/12/09 04:33:26;;;;;;;2.67;1.38;;;102.60;1920.00;;;;;;5098501;28;20053;-70
2020/12/09 04:35:51;;;;;;;2.15;1.15;;;102.60;1945.60;;;;;;5099223;28;20031;-71
2020/12/09 04:38:17;;;;;;;3.05;1.38;;;102.70;1920.00;;;;;;5099383;28;20103;-71
2020/12/09 04:40:44;;;;;;;3.63;1.23;;;102.70;1920.00;;;;;;5099421;28;20020;-71
2020/12/09 04:43:10;;;;;;;2.15;1.27;;;102.60;1920.00;;;;;;5099368;28;20047;-72
2020/12/09 04:45:37;;;;;;;2.08;1.27;;;102.60;1920.00;;;;;;5099216;28;20038;-72
2020/12/09 04:48:13;;;;;;;2.28;1.30;;;102.60;1945.60;;;;;;5099512;28;20096;-71
2020/12/09 04:50:57;;;;;;;2.40;1.17;;;102.50;1945.60;;;;;;5099537;28;20064;-71
2020/12/09 04:53:30;;;;;;;2.72;1.20;;;102.50;1945.60;;;;;;5099421;28;20028;-72
2020/12/09 04:55:58;;;;;;;3.00;1.60;;;102.60;1945.60;;;;;;5099626;28;20422;-73
2020/12/09 04:58:53;;;;;;;13.80;7.73;;;102.60;1945.60;;;;;;5098844;28;20020;-72
2020/12/09 05:01:19;;;;;;;62.40;33.00;;;102.60;1945.60;;;;;;5099563;28;20137;-71
2020/12/09 05:03:45;;;;;;;5.95;4.68;;;102.60;1945.60;;;;;;5099481;28;20068;-72
2020/12/09 05:06:14;;;;;;;24.90;22.70;;;102.60;1945.60;;;;;;5098875;28;20024;-70
2020/12/09 05:08:47;;;;;;;14.55;10.82;;;102.60;1945.60;;;;;;5099071;28;20107;-72
2020/12/09 05:11:14;;;;;;;10.48;8.73;;;102.60;1945.60;;;;;;5098563;28;20384;-71
2020/12/09 05:13:43;;;;;;;10.38;6.32;;;102.60;1945.60;;;;;;5080807;28;20391;-70
2020/12/09 05:16:12;;;;;;;6.80;5.07;;;102.60;1971.20;;;;;;5098965;28;20338;-72
2020/12/09 05:18:40;;;;;;;5.70;4.05;;;102.50;1971.20;;;;;;5098549;28;20023;-71
2020/12/09 05:21:12;;;;;;;3.65;1.92;;;102.50;1971.20;;;;;;5098863;28;20035;-72
2020/12/09 05:23:48;;;;;;;2.83;1.75;;;102.60;1971.20;;;;;;5099106;28;20024;-71
2020/12/09 05:26:22;;;;;;;3.70;2.22;;;102.70;1971.20;;;;;;5098497;28;20029;-71
2020/12/09 05:28:48;;;;;;;6.13;1.88;;;102.80;1971.20;;;;;;5098972;28;20031;-70
2020/12/09 05:31:21;;;;;;;12.02;6.40;;;102.80;1971.20;;;;;;5098928;28;20020;-70
2020/12/09 05:33:47;;;;;;;31.33;14.55;;;102.90;1971.20;;;;;;5098523;28;20157;-71
2020/12/09 05:36:14;;;;;;;34.53;16.15;;;103.10;1971.20;;;;;;5098831;28;20119;-71
2020/12/09 05:38:40;;;;;;;8.05;4.95;;;103.10;1945.60;;;;;;5098553;28;20384;-72
2020/12/09 05:41:12;;;;;;;5.60;2.95;;;103.00;1945.60;;;;;;5097730;28;20134;-71
2020/12/09 05:43:42;;;;;;;7.15;5.18;;;102.90;1945.60;;;;;;5098747;28;20036;-72
2020/12/09 05:46:09;;;;;;;4.63;3.05;;;103.00;1945.60;;;;;;5098256;28;20047;-72
2020/12/09 05:48:35;;;;;;;4.22;2.63;;;102.90;1920.00;;;;;;5098084;28;20055;-71
2020/12/09 05:51:01;;;;;;;4.85;2.17;;;102.70;1945.60;;;;;;5098265;28;20056;-72
2020/12/09 05:53:32;;;;;;;3.38;1.90;;;102.80;1971.20;;;;;;5097917;28;20032;-71
2020/12/09 05:56:11;;;;;;;7.78;3.83;;;102.90;1945.60;;;;;;5098466;28;20119;-72
2020/12/09 05:58:42;;;;;;;4.95;2.30;;;102.70;1971.20;;;;;;5098422;28;20128;-71
2020/12/09 06:01:20;;;;;;;5.05;2.60;;;102.80;1971.20;;;;;;5098100;28;20114;-71
2020/12/09 06:03:51;;;;;;;4.70;2.58;;;102.90;1945.60;;;;;;5098137;28;20028;-72
2020/12/09 06:06:20;;;;;;;4.93;2.22;;;103.00;1945.60;;;;;;5098310;28;20325;-70
2020/12/09 06:08:47;;;;;;;4.80;2.42;;;102.90;1971.20;;;;;;5097109;28;20032;-71
2020/12/09 06:11:16;;;;;;;3.55;1.80;;;102.90;1971.20;;;;;;5097905;28;20020;-72
2020/12/09 06:13:42;;;;;;;3.17;1.90;;;103.00;1996.80;;;;;;5098111;28;20032;-71
2020/12/09 06:16:09;;;;;;;3.85;2.35;;;103.10;1971.20;;;;;;5097882;28;20127;-70
2020/12/09 06:18:38;;;;;;;3.15;1.90;;;103.00;1945.60;;;;;;5098109;28;20379;-72
2020/12/09 06:21:05;;;;;;;4.72;2.55;;;103.00;1945.60;;;;;;5097806;28;20019;-72
2020/12/09 06:23:31;;;;;;;2.97;1.70;;;103.00;1971.20;;;;;;5097182;28;20036;-71
2020/12/09 06:25:59;;;;;;;5.25;1.95;;;103.00;1996.80;;;;;;5097987;28;20020;-71
2020/12/09 06:28:30;;;;;;;3.60;2.17;;;103.20;1971.20;;;;;;5097674;28;20047;-71
2020/12/09 06:30:58;;;;;;;3.70;2.30;;;128.00;1945.60;;;;;;5097383;28;20028;-71
2020/12/09 06:33:57;;;;;;;3.35;2.28;;;128.00;1945.60;;;;;;5097818;28;20160;-71
2020/12/09 06:36:30;;;;;;;25.73;14.20;;;103.10;1945.60;;;;;;5097345;28;20032;-70
2020/12/09 06:39:08;;;;;;;16.60;10.25;;;103.10;1945.60;;;;;;5097721;28;20127;-72
2020/12/09 06:41:57;;;;;;;9.63;8.48;;;102.80;1971.20;;;;;;5097085;28;20126;-72
2020/12/09 06:44:29;;;;;;;4.53;3.30;;;103.10;1945.60;;;;;;5079380;28;20077;-72
2020/12/09 06:46:56;;;;;;;2.75;1.50;;;103.20;1920.00;;;;;;5097101;28;20115;-70
2020/12/09 06:49:39;;;;;;;8.20;1.92;;;102.80;1945.60;;;;;;5097101;28;20327;-73
2020/12/09 06:52:11;;;;;;;4.35;1.35;;;102.90;2022.40;;;;;;5096885;28;20410;-73
2020/12/09 06:54:46;;;;;;;4.05;2.28;;;102.90;1945.60;;;;;;5079160;28;20028;-74
2020/12/09 06:57:16;;;;;;;6.38;3.17;;;103.10;1971.20;;;;;;5096827;28;20047;-73
2020/12/09 06:59:46;;;;;;;5.97;3.75;;;103.00;1971.20;;;;;;5092203;28;20020;-73
2020/12/09 07:02:25;;;;;;;4.38;2.78;;;102.70;2022.40;;;;;;5095995;28;20051;-74
2020/12/09 07:04:54;;;;;;;;;;;102.90;1971.20;;;;;;5097018;28;20337;-74
2020/12/09 07:07:39;;;;;;;3.67;2.45;;;103.10;1945.60;;;;;;5096735;28;20207;-74
2020/12/09 07:10:10;;;;;;;4.93;3.00;;;103.10;1971.20;;;;;;5096980;28;20101;-74
2020/12/09 07:12:36;;;;;;;3.95;2.78;;;103.20;1945.60;;;;;;5096358;28;20027;-73
2020/12/09 07:15:03;;;;;;;7.30;3.28;;;103.30;1945.60;;;;;;5096894;28;20093;-73
2020/12/09 07:17:30;;;;;;;3.33;2.53;;;128.00;1971.20;;;;;;5097180;28;20318;-73
2020/12/09 07:19:56;;;;;;;2.80;1.85;;;128.10;1971.20;;;;;;5094522;28;20024;-74
2020/12/09 07:22:23;;;;;;;3.28;1.70;;;128.40;1971.20;;;;;;5096473;28;20354;-73
2020/12/09 07:24:49;;;;;;;6.63;4.80;;;128.20;1971.20;;;;;;5096288;28;20024;-74
2020/12/09 07:27:15;;;;;;;4.65;2.83;;;128.40;1971.20;;;;;;5095699;28;20069;-74
2020/12/09 07:29:46;;;;;;;4.60;2.55;;;128.30;1971.20;;;;;;5096245;28;20107;-74
2020/12/09 07:32:19;;;;;;;6.93;2.22;;;128.50;1971.20;;;;;;5095230;28;20048;-74
2020/12/09 07:34:58;;;;;;;5.00;2.30;;;128.50;1971.20;;;;;;5095914;28;20024;-76
2020/12/09 07:37:25;;;;;;;;;;;128.60;1996.80;;;;;;5095385;28;20385;-76
2020/12/09 07:39:53;;;;;;;3.38;2.20;;;128.60;1996.80;;;;;;5095970;28;19904;-74
2020/12/09 07:42:22;;;;;;;3.28;1.95;;;128.70;1971.20;;;;;;5097026;28;20411;-76
2020/12/09 07:44:49;;;;;;;2.90;1.60;;;128.70;1996.80;;;;;;5096483;28;20023;-77
2020/12/09 07:47:28;;;;;;;3.17;2.03;;;128.40;1971.20;;;;;;5096452;28;20043;-73
2020/12/09 07:50:04;;;;;;;4.85;1.65;;;128.60;1971.20;;;;;;5096748;28;20103;-74
2020/12/09 07:52:33;;;;;;;3.30;2.20;;;128.60;1945.60;;;;;;5096120;28;20024;-74
2020/12/09 07:55:00;;;;;;;8.43;4.77;;;128.70;1945.60;;;;;;5096087;28;20028;-75
2020/12/09 07:57:31;;;;;;;3.72;2.25;;;128.80;1945.60;;;;;;5096871;28;20436;-75
2020/12/09 07:59:58;;;;;;;6.38;4.25;;;128.90;1920.00;;;;;;5095801;28;20035;-76
2020/12/09 08:02:25;;;;;;;4.68;2.08;;;128.80;1894.40;;;;;;5078568;28;20028;-73
2020/12/09 08:05:15;;;;;;;6.40;3.17;;;128.70;1920.00;;;;;;5095821;28;20431;-73
2020/12/09 08:07:54;;;;;;;3.25;1.83;;;128.70;1945.60;;;;;;5096559;28;20024;-72
2020/12/09 08:10:34;;;;;;;5.22;3.83;;;128.80;1920.00;;;;;;5100297;28;20032;-73
2020/12/09 08:13:23;;;;;;;4.22;2.10;;;128.80;1920.00;;;;;;5098494;28;20057;-73
2020/12/09 08:16:01;;;;;;;3.50;2.08;;;128.60;1945.60;;;;;;5096683;28;20031;-73
2020/12/09 08:18:27;;;;;;;5.82;2.30;;;128.70;1894.40;;;;;;5098451;28;20039;-72
2020/12/09 08:20:54;;;;;;;3.67;2.33;;;128.60;1920.00;;;;;;5099038;28;20024;-72
2020/12/09 08:23:21;;;;;;;2.92;2.05;;;128.70;1894.40;;;;;;5098794;28;20024;-72
2020/12/09 08:25:50;;;;;;;3.60;2.53;;;128.70;1894.40;;;;;;5099497;28;20035;-73
2020/12/09 08:28:23;;;;;;;8.63;4.10;;;128.80;1868.80;;;;;;5099248;28;20020;-73
2020/12/09 08:30:50;;;;;;;7.72;5.47;;;128.90;1868.80;;;;;;5099134;28;20031;-73
2020/12/09 08:33:17;;;;;;;10.95;6.32;;;153.60;1868.80;;;;;;5099569;28;20426;-72
2020/12/09 08:35:58;;;;;;;7.47;5.28;;;128.80;1868.80;;;;;;5098723;28;20112;-72
2020/12/09 08:38:31;;;;;;;12.73;9.10;;;128.90;1843.20;;;;;;5099890;28;20020;-72
2020/12/09 08:40:59;;;;;;;6.78;4.32;;;153.60;1843.20;;;;;;5099465;28;20110;-73
2020/12/09 08:43:30;;;;;;;6.10;4.00;;;128.90;1843.20;;;;;;5099008;28;20034;-72
2020/12/09 08:45:58;;;;;;;9.45;5.30;;;128.90;1843.20;;;;;;5099659;28;20028;-72
2020/12/09 08:48:24;;;;;;;4.95;2.70;;;153.60;1843.20;;;;;;5099117;28;20116;-72
2020/12/09 08:50:51;;;;;;;5.57;3.65;;;153.60;1843.20;;;;;;5099153;28;20023;-72
2020/12/09 08:53:19;;;;;;;5.70;4.40;;;153.70;1843.20;;;;;;5098646;28;20035;-72
2020/12/09 08:55:45;;;;;;;10.90;6.65;;;153.80;1817.60;;;;;;5098958;28;20024;-72
2020/12/09 08:58:12;;;;;;;3.45;2.38;;;153.80;1792.00;;;;;;5099437;28;20024;-72
2020/12/09 09:00:39;;;;;;;2.40;1.60;;;154.00;1817.60;;;;;;5098888;28;20396;-71
2020/12/09 09:03:06;;;;;;;4.28;2.65;;;154.10;1792.00;;;;;;5098403;28;20054;-74
2020/12/09 09:05:32;;;;;;;4.18;1.63;;;154.30;1792.00;;;;;;5098704;28;20030;-73
2020/12/09 09:07:58;;;;;;;2.92;1.70;;;154.50;1740.80;;;;;;5098661;28;20114;-73
2020/12/09 09:10:24;;;;;;;4.65;2.80;;;179.30;1715.20;;;;;;5098987;28;20028;-72
2020/12/09 09:12:50;;;;;;;3.63;2.00;;;179.50;1689.60;;;;;;5097440;28;20069;-71
2020/12/09 09:15:16;;;;;;;3.95;2.67;;;179.80;1689.60;;;;;;5097368;28;20028;-72
2020/12/09 09:17:42;;;;;;;3.70;2.60;;;179.80;1664.00;;;;;;5096694;28;20406;-73
2020/12/09 09:20:08;;;;;;;3.08;2.10;;;179.70;1664.00;;;;;;5096942;28;20053;-74
2020/12/09 09:22:34;;;;;;;4.82;4.05;;;179.60;1664.00;;;;;;5098309;28;20024;-73
2020/12/09 09:25:00;;;;;;;3.30;1.73;;;179.60;1689.60;;;;;;5097925;28;20036;-73
2020/12/09 09:27:26;;;;;;;5.60;3.80;;;179.60;1689.60;;;;;;5098619;28;20028;-73
2020/12/09 09:29:53;;;;;;;3.90;3.00;;;179.40;1715.20;;;;;;5094520;28;20027;-73
2020/12/09 09:32:19;;;;;;;2.20;1.70;;;179.50;1689.60;;;;;;5098032;28;20020;-74
2020/12/09 09:34:45;;;;;;;4.18;2.60;;;179.50;1715.20;;;;;;5098316;28;20407;-74
2020/12/09 09:37:11;;;;;;;2.47;1.60;;;179.70;1689.60;;;;;;5098383;28;20043;-74
2020/12/09 09:39:37;;;;;;;4.30;2.60;;;179.90;1664.00;;;;;;5098381;28;20440;-74
2020/12/09 09:42:06;;;;;;;4.43;2.85;;;179.80;1689.60;;;;;;5096384;28;20089;-73
2020/12/09 09:44:32;;;;;;;3.22;2.13;;;179.90;1664.00;;;;;;5078229;28;20039;-73
2020/12/09 09:47:00;;;;;;;4.88;2.97;;;180.00;1664.00;;;;;;5076882;28;20337;-71
2020/12/09 09:49:26;;;;;;;2.03;1.30;;;179.90;1664.00;;;;;;5077368;28;20028;-73
2020/12/09 09:51:53;;;;;;;3.75;1.95;;;204.90;1638.40;;;;;;5077855;28;20494;-74
2020/12/09 09:54:27;;;;;;;2.60;1.70;;;205.20;1638.40;;;;;;5096243;28;20342;-73
2020/12/09 09:56:53;;;;;;;3.10;1.60;;;205.60;1612.80;;;;;;5096726;28;20051;-73
2020/12/09 09:59:19;;;;;;;1.83;1.10;;;230.60;1612.80;;;;;;5096680;28;20059;-73
2020/12/09 10:01:45;;;;;;;1.88;1.35;;;231.10;1510.40;;;;;;5097190;28;20077;-73
2020/12/09 10:04:11;;;;;;;2.10;1.50;;;231.30;1510.40;;;;;;5097912;28;20111;-73
2020/12/09 10:06:36;;;;;;;3.45;2.85;;;256.30;1484.80;;;;;;5095072;28;20106;-73
2020/12/09 10:09:06;;;;;;;5.28;1.90;;;256.60;1459.20;;;;;;5096500;28;20450;-73
2020/12/09 10:11:35;;;;;;;1.98;1.20;;;256.80;1433.60;;;;;;5097915;28;20024;-73
2020/12/09 10:14:01;;;;;;;2.63;1.60;;;281.60;1459.20;;;;;;5097413;28;20032;-72
2020/12/09 10:16:28;;;;;;;1.40;1.05;;;256.90;1433.60;;;;;;5096947;28;20399;-72
2020/12/09 10:18:54;;;;;;;1.75;1.10;;;256.70;1433.60;;;;;;5097650;28;20086;-74
2020/12/09 10:21:25;;;;;;;3.25;2.10;;;256.40;1459.20;;;;;;5095984;28;20433;-73
2020/12/09 10:23:51;;;;;;;3.15;1.65;;;256.60;1433.60;;;;;;5097209;28;20031;-73
2020/12/09 10:26:17;;;;;;;1.75;1.10;;;256.40;1433.60;;;;;;5096348;28;20036;-71
2020/12/09 10:28:44;;;;;;;2.88;1.30;;;256.20;1459.20;;;;;;5096594;28;20020;-72
2020/12/09 10:31:11;;;;;;;3.80;1.40;;;256.20;1484.80;;;;;;5096910;28;20464;-72
2020/12/09 10:33:37;;;;;;;4.32;2.42;;;231.30;1484.80;;;;;;5097044;28;20066;-73
2020/12/09 10:36:04;;;;;;;7.28;5.30;;;231.00;1510.40;;;;;;5097300;28;20032;-72
2020/12/09 10:38:31;;;;;;;36.28;23.45;;;230.40;1561.60;;;;;;5097230;28;20072;-71
2020/12/09 10:40:58;;;;;;;8.30;5.85;;;205.60;1561.60;;;;;;5096625;28;20067;-71
2020/12/09 10:43:24;;;;;;;15.23;10.55;;;205.30;1587.20;;;;;;5097607;28;20032;-72
2020/12/09 10:45:50;;;;;;;14.82;10.90;;;205.10;1587.20;;;;;;5097532;28;20024;-72
2020/12/09 10:48:16;;;;;;;16.73;12.10;;;205.10;1587.20;;;;;;5096966;28;20406;-70
2020/12/09 10:50:42;;;;;;;15.05;10.68;;;204.80;1612.80;;;;;;5097123;28;20020;-72
2020/12/09 10:53:08;;;;;;;23.95;20.50;;;180.10;1587.20;;;;;;5078899;28;20031;-73
2020/12/09 10:55:36;;;;;;;19.30;13.95;;;180.10;1612.80;;;;;;5096886;28;20118;-72
2020/12/09 10:58:02;;;;;;;25.77;19.48;;;204.90;1587.20;;;;;;5097460;28;20020;-71
2020/12/09 11:00:28;;;;;;;12.30;8.48;;;204.90;1587.20;;;;;;5097324;28;20036;-72
2020/12/09 11:02:54;;;;;;;20.88;17.63;;;205.00;1561.60;;;;;;5096932;28;20107;-72
2020/12/09 11:05:20;;;;;;;66.82;50.75;;;205.10;1587.20;;;;;;5095744;28;20028;-72
2020/12/09 11:07:45;;;;;;;33.13;28.02;;;205.70;1536.00;;;;;;5097352;28;20023;-71
2020/12/09 11:10:11;;;;;;;35.58;29.00;;;205.70;1536.00;;;;;;5096753;28;20362;-71
2020/12/09 11:12:37;;;;;;;11.07;8.90;;;205.40;1561.60;;;;;;5096764;28;20020;-71
2020/12/09 11:15:03;;;;;;;30.40;24.17;;;205.50;1536.00;;;;;;5094449;28;20043;-72
2020/12/09 11:17:29;;;;;;;5.30;4.38;;;205.40;1561.60;;;;;;5095479;28;20020;-73
2020/12/09 11:19:55;;;;;;;4.80;3.20;;;205.20;1587.20;;;;;;5096433;28;20024;-72
2020/12/09 11:22:21;;;;;;;5.53;4.43;;;204.90;1587.20;;;;;;5096321;28;20034;-71
2020/12/09 11:24:47;;;;;;;6.25;3.58;;;180.10;1612.80;;;;;;5096537;28;20032;-73
2020/12/09 11:27:14;;;;;;;12.88;4.07;;;180.00;1638.40;;;;;;5096481;28;20024;-73
2020/12/09 11:29:40;;;;;;;5.97;3.97;;;179.80;1664.00;;;;;;5090403;28;20319;-72
2020/12/09 11:32:06;;;;;;;5.07;3.85;;;179.70;1664.00;;;;;;5076265;28;20028;-72
2020/12/09 11:34:32;;;;;;;5.93;2.45;;;179.40;1715.20;;;;;;5093785;28;20081;-72
2020/12/09 11:36:59;;;;;;;3.50;2.10;;;179.30;1689.60;;;;;;5094898;28;20368;-72
2020/12/09 11:39:26;;;;;;;5.57;2.92;;;154.50;1715.20;;;;;;5094860;28;20116;-73
2020/12/09 11:41:52;;;;;;;4.20;2.28;;;154.50;1715.20;;;;;;5096808;28;20109;-73
2020/12/09 11:44:18;;;;;;;4.88;3.45;;;179.30;1689.60;;;;;;5099706;28;20359;-73
2020/12/09 11:46:44;;;;;;;3.80;2.17;;;154.50;1715.20;;;;;;5100364;28;20028;-71
2020/12/09 11:49:10;;;;;;;4.53;2.22;;;179.20;1689.60;;;;;;5100528;28;20036;-71
2020/12/09 11:51:35;;;;;;;3.28;1.70;;;154.40;1689.60;;;;;;5098014;28;20525;-71
2020/12/09 11:54:01;;;;;;;3.75;2.65;;;154.40;1689.60;;;;;;5098097;28;20031;-72
2020/12/09 11:56:27;;;;;;;5.15;2.75;;;154.40;1715.20;;;;;;5098029;28;20356;-71
2020/12/09 11:58:53;;;;;;;5.10;2.75;;;154.10;1766.40;;;;;;5099531;28;20031;-71
2020/12/09 12:01:23;;;;;;;5.00;2.72;;;153.90;1740.80;;;;;;5100015;28;20093;-71
2020/12/09 12:03:49;;;;;;;4.68;2.20;;;153.90;1766.40;;;;;;5099889;28;20414;-71
2020/12/09 12:06:22;;;;;;;3.88;2.45;;;153.90;1766.40;;;;;;5099602;28;20029;-71
2020/12/09 12:08:49;;;;;;;3.05;1.65;;;154.00;1792.00;;;;;;5100253;28;20035;-71
2020/12/09 12:11:16;;;;;;;5.72;2.00;;;154.00;1792.00;;;;;;5100417;28;20072;-71
2020/12/09 12:13:42;;;;;;;3.58;2.00;;;154.20;1792.00;;;;;;5099750;28;20024;-70
2020/12/09 12:16:12;;;;;;;6.47;1.98;;;154.10;1792.00;;;;;;5100303;28;20031;-71
2020/12/09 12:18:38;;;;;;;3.38;2.00;;;154.10;1766.40;;;;;;5099851;28;20414;-72
2020/12/09 12:21:04;;;;;;;6.25;2.58;;;154.30;1792.00;;;;;;5099240;28;20057;-72
2020/12/09 12:23:30;;;;;;;3.35;2.10;;;154.30;1766.40;;;;;;5099862;28;20031;-71